CYYZ/YYZ METAR and TAF weather

Enter ICAO airport designator
Station Type Date Time Source
CYYZ METAR 2020/02/28 09:00 UTC NOAA

CYYZ 280900Z 25016G23KT 10SM -SN FEW025 BKN051 BKN160 M06/M10 A2963 RMK CF1SC4AC2 SLP046


Station Type Date Time Source
CYYZ Decoded METAR 2020/02/28 09:00 UTC NOAA

Toronto Pearson Int'L. Ont., Canada (CYYZ) 43-40N 079-38W 173M
Feb 28, 2020 - 04:00 AM EST / 2020.02.28 0900 UTC
Wind: from the WSW (250 degrees) at 18 MPH (16 KT) gusting to 26 MPH (23 KT):0
Visibility: 10 mile(s):0
Sky conditions: mostly cloudy
Weather: light snow
Temperature: 21 F (-6 C)
Windchill: 6 F (-14 C):1
Dew Point: 14 F (-10 C)
Relative Humidity: 73%
Pressure (altimeter): 29.63 in. Hg (1003 hPa)
ob: CYYZ 280900Z 25016G23KT 10SM -SN FEW025 BKN051 BKN160 M06/M10 A2963 RMK CF1SC4AC2 SLP046
cycle: 9

Station Type Date Time Source
CYYZ TAF 2020/02/28 09:43 UTC NOAA

TAF CYYZ 280840Z 2809/2912 27015G25KT P6SM SCT030 BKN150
TEMPO 2809/2811 5SM -SHSN BLSN BKN030 BKN060
FM281100 27020G30KT P6SM BKN040
TEMPO 2811/2817 3SM -SHSN BLSN BKN020 BKN040
FM281700 26018G28KT P6SM -SHSN OVC030
TEMPO 2817/2901 11/2SM -SHSN BLSN OVC020 PROB30 2820/2901 1/2SM SHSN BLSN VV005
FM290100 30010G20KT 4SM -SHSN BKN030 OVC060
FM290400 30012KT P6SM SCT030 BKN060
FM290800 31008KT P6SM BKN070
FM291100 02008KT P6SM BKN100
RMK NXT FCST BY 281200Z

Example: see airport list